Graham Municipal Airport


Codes: KRPH/
Name: Graham Municipal Airport
City: Graham
Country: United States
Elevation: 1123 ft.

Photos at Graham Municipal Airport


   Photos courtesy of SpottingLog. You can add your own sightings and photos by signing up for a free trial today.



No photos found.

Weather at Graham Municipal Airport


Time (UTC)DescriptionTempratureWindCloud coverageVisibilityPressureHumidity
21-Jun-2024 12:00Clear Sky22°C7 mph, SE0%10000m1018hPa91%
21-Jun-2024 15:00Light Rain24°C9 mph, SE28%10000m1019hPa81%
21-Jun-2024 18:00Broken Clouds28°C11 mph, SE55%10000m1019hPa62%
21-Jun-2024 21:00Broken Clouds32°C7 mph, SE82%10000m1017hPa45%
22-Jun-2024 00:00Overcast Clouds29°C9 mph, SE85%10000m1016hPa55%
22-Jun-2024 03:00Broken Clouds26°C9 mph, SE74%10000m1017hPa66%
22-Jun-2024 06:00Scattered Clouds24°C9 mph, SE41%10000m1017hPa74%
22-Jun-2024 09:00Few Clouds24°C9 mph, SE11%10000m1017hPa75%
22-Jun-2024 12:00Few Clouds23°C7 mph, SW21%10000m1017hPa84%
22-Jun-2024 15:00Clear Sky29°C11 mph, SW6%10000m1017hPa60%
22-Jun-2024 18:00Clear Sky33°C11 mph, S5%10000m1015hPa38%
22-Jun-2024 21:00Clear Sky35°C13 mph, S8%10000m1013hPa33%
23-Jun-2024 00:00Clear Sky33°C13 mph, S7%10000m1012hPa40%
23-Jun-2024 03:00Clear Sky28°C11 mph, S6%10000m1013hPa53%
23-Jun-2024 06:00Clear Sky27°C13 mph, S7%10000m1013hPa56%
23-Jun-2024 09:00Clear Sky25°C9 mph, SW4%10000m1013hPa62%
23-Jun-2024 12:00Clear Sky24°C7 mph, SW3%10000m1014hPa71%
23-Jun-2024 15:00Clear Sky30°C11 mph, SW0%10000m1014hPa54%
23-Jun-2024 18:00Clear Sky34°C9 mph, SW2%10000m1013hPa37%
23-Jun-2024 21:00Clear Sky37°C7 mph, S6%10000m1010hPa31%
24-Jun-2024 00:00Clear Sky35°C11 mph, S5%10000m1009hPa38%
24-Jun-2024 03:00Clear Sky29°C13 mph, S0%10000m1010hPa50%
24-Jun-2024 06:00Clear Sky27°C11 mph, S0%10000m1011hPa44%
24-Jun-2024 09:00Clear Sky25°C9 mph, S0%10000m1011hPa50%
24-Jun-2024 12:00Clear Sky24°C9 mph, S0%10000m1012hPa76%
24-Jun-2024 15:00Clear Sky30°C13 mph, SW1%10000m1012hPa58%
24-Jun-2024 18:00Clear Sky35°C11 mph, S3%10000m1011hPa39%
24-Jun-2024 21:00Clear Sky37°C13 mph, S4%10000m1008hPa31%
25-Jun-2024 00:00Clear Sky35°C13 mph, S4%10000m1007hPa37%
25-Jun-2024 03:00Clear Sky30°C16 mph, SE4%10000m1008hPa48%
25-Jun-2024 06:00Clear Sky28°C16 mph, S5%10000m1008hPa56%
25-Jun-2024 09:00Scattered Clouds27°C16 mph, S37%10000m1009hPa68%
25-Jun-2024 12:00Broken Clouds26°C13 mph, S62%10000m1010hPa78%
25-Jun-2024 15:00Broken Clouds30°C18 mph, SW57%10000m1009hPa61%
25-Jun-2024 18:00Broken Clouds35°C16 mph, SW67%10000m1008hPa43%
25-Jun-2024 21:00Broken Clouds38°C16 mph, S57%10000m1006hPa35%
26-Jun-2024 00:00Scattered Clouds36°C18 mph, S30%10000m1004hPa39%
26-Jun-2024 03:00Clear Sky32°C18 mph, S1%10000m1006hPa48%
26-Jun-2024 06:00Scattered Clouds30°C11 mph, S34%10000m1008hPa52%
26-Jun-2024 09:00Scattered Clouds28°C11 mph, S34%10000m1008hPa69%